Time;durP1;ratioP1;P1;durP2;ratioP2;P2;SDS_P1;SDS_P2;PMS_P1;PMS_P2;Temp;Humidity;BMP_temperature;BMP_pressure;BME280_temperature;BME280_humidity;BME280_pressure;Samples;Min_cycle;Max_cycle;Signal;HPM_P1;HPM_P2
2021/04/17 00:01:07;;;;;;;5.68;3.60;;;;;;;9.99;33.32;100359.59;4955416;28;20023;-69
2021/04/17 00:03:32;;;;;;;6.07;3.22;;;;;;;9.95;33.22;100367.50;4956124;28;20500;-69
2021/04/17 00:05:58;;;;;;;5.28;2.75;;;;;;;9.92;33.45;100363.41;4956695;28;20030;-69
2021/04/17 00:08:23;;;;;;;5.40;3.15;;;;;;;9.79;33.37;100347.63;4955708;28;20086;-69
2021/04/17 00:10:49;;;;;;;4.85;2.97;;;;;;;9.69;33.33;100329.41;4957240;28;20027;-69
2021/04/17 00:13:14;;;;;;;8.98;2.85;;;;;;;9.84;33.37;100355.78;4955497;28;20038;-69
2021/04/17 00:15:40;;;;;;;4.28;3.00;;;;;;;9.77;33.87;100353.38;4956617;28;20397;-69
2021/04/17 00:18:05;;;;;;;5.13;2.97;;;;;;;9.74;33.53;100358.56;4956731;28;20030;-69
2021/04/17 00:20:31;;;;;;;5.97;3.10;;;;;;;9.70;33.48;100357.44;4953917;28;20024;-69
2021/04/17 00:22:56;;;;;;;8.00;2.95;;;;;;;9.65;34.04;100349.28;4956489;28;20038;-69
2021/04/17 00:25:22;;;;;;;4.95;2.97;;;;;;;9.60;33.97;100347.38;4955714;28;20034;-69
2021/04/17 00:27:47;;;;;;;4.70;2.88;;;;;;;9.56;33.99;100352.56;4955332;28;20031;-69
2021/04/17 00:30:13;;;;;;;5.05;2.70;;;;;;;9.48;34.18;100339.50;4956643;28;20031;-69
2021/04/17 00:32:39;;;;;;;4.78;3.00;;;;;;;9.54;34.41;100348.50;4955821;28;20046;-69
2021/04/17 00:35:05;;;;;;;6.18;2.95;;;;;;;9.48;34.45;100344.13;4956108;28;20150;-69
2021/04/17 00:37:30;;;;;;;4.43;2.85;;;;;;;9.37;34.42;100352.31;4956439;28;20024;-69
2021/04/17 00:39:56;;;;;;;3.25;2.50;;;;;;;9.27;34.86;100331.31;4960646;28;20038;-69
2021/04/17 00:42:21;;;;;;;4.65;3.20;;;;;;;9.23;34.65;100337.56;4955458;28;20102;-69
2021/04/17 00:44:47;;;;;;;4.10;2.45;;;;;;;9.25;35.02;100347.13;4955949;28;20027;-70
2021/04/17 00:47:12;;;;;;;4.93;2.92;;;;;;;9.03;34.92;100311.16;4956095;28;20060;-69
2021/04/17 00:49:38;;;;;;;4.18;2.50;;;;;;;9.13;35.17;100333.75;4954222;29;20045;-68
2021/04/17 00:52:03;;;;;;;4.22;2.90;;;;;;;9.14;35.01;100340.03;4955845;28;20098;-69
2021/04/17 00:54:29;;;;;;;3.40;2.40;;;;;;;9.08;35.43;100331.03;4955908;28;20058;-69
2021/04/17 00:56:54;;;;;;;4.18;2.50;;;;;;;8.93;35.09;100318.22;4956300;28;20094;-68
2021/04/17 00:59:20;;;;;;;5.82;2.42;;;;;;;8.94;35.35;100328.03;4955778;28;20074;-69
2021/04/17 01:01:46;;;;;;;3.45;2.50;;;;;;;8.89;35.45;100336.19;4956035;28;20039;-69
2021/04/17 01:04:24;;;;;;;2.92;2.25;;;;;;;8.87;36.00;100332.91;4955246;28;20488;-69
2021/04/17 01:07:13;;;;;;;3.83;2.50;;;;;;;8.88;35.78;100329.09;4954090;28;20054;-69
2021/04/17 01:09:46;;;;;;;6.22;2.60;;;;;;;8.88;35.98;100323.66;4956015;28;20070;-69
2021/04/17 01:12:18;;;;;;;4.00;2.30;;;;;;;8.86;35.69;100316.88;4957349;28;20030;-69
2021/04/17 01:14:46;;;;;;;4.38;2.40;;;;;;;8.85;36.17;100326.09;4954162;28;20031;-68
2021/04/17 01:17:13;;;;;;;5.15;2.45;;;;;;;8.57;36.02;100277.38;4958205;28;20100;-69
2021/04/17 01:19:38;;;;;;;4.13;2.58;;;;;;;8.87;36.00;100322.03;4958445;28;20027;-68
2021/04/17 01:22:09;;;;;;;5.72;2.70;;;;;;;8.87;35.82;100319.31;4960083;28;20110;-69
2021/04/17 01:24:37;;;;;;;3.53;2.10;;;;;;;8.90;36.05;100313.34;4960282;28;20026;-69
2021/04/17 01:27:05;;;;;;;3.78;2.30;;;;;;;8.97;35.77;100308.44;4959446;28;20392;-69
2021/04/17 01:29:31;;;;;;;3.45;2.03;;;;;;;8.95;36.11;100316.06;4959705;28;20062;-69
2021/04/17 01:31:59;;;;;;;3.00;2.03;;;;;;;8.90;35.99;100312.50;4960822;28;20030;-68
2021/04/17 01:34:26;;;;;;;4.03;2.28;;;;;;;8.86;36.30;100312.22;4960150;28;20035;-68
2021/04/17 01:36:52;;;;;;;2.75;2.13;;;;;;;8.58;36.19;100281.75;4972792;28;20026;-69
2021/04/17 01:39:20;;;;;;;4.90;2.35;;;;;;;8.77;36.11;100311.94;4958881;28;20098;-70
2021/04/17 01:41:51;;;;;;;4.28;2.15;;;;;;;8.80;36.22;100313.31;4960097;28;20035;-70
2021/04/17 01:44:22;;;;;;;3.92;2.50;;;;;;;8.79;36.24;100311.69;4959694;28;20408;-69
2021/04/17 01:46:50;;;;;;;4.75;2.60;;;;;;;8.74;36.45;100308.97;4960863;28;20027;-70
2021/04/17 01:49:19;;;;;;;5.82;2.30;;;;;;;8.75;36.67;100305.97;4960388;29;20496;-69
2021/04/17 01:51:46;;;;;;;3.38;2.28;;;;;;;8.74;36.24;100301.59;4959938;28;20027;-68
2021/04/17 01:54:19;;;;;;;3.75;2.30;;;;;;;8.74;36.46;100298.09;4959817;28;20039;-69
2021/04/17 01:56:50;;;;;;;3.72;2.40;;;;;;;8.76;36.39;100295.91;4959529;28;20027;-69
2021/04/17 01:59:18;;;;;;;4.72;2.47;;;;;;;8.73;36.76;100299.16;4958985;28;20031;-69
2021/04/17 02:01:44;;;;;;;2.75;2.10;;;;;;;8.71;36.71;100299.44;4960351;28;20027;-68
2021/04/17 02:04:09;;;;;;;3.83;2.47;;;;;;;8.66;36.92;100302.13;4959322;28;20027;-68
2021/04/17 02:06:35;;;;;;;4.32;2.30;;;;;;;8.61;36.70;100292.06;4959370;28;20027;-69
2021/04/17 02:09:00;;;;;;;3.20;2.08;;;;;;;8.57;36.96;100296.41;4962191;28;20443;-69
2021/04/17 02:11:26;;;;;;;3.25;2.28;;;;;;;8.51;37.26;100300.19;4960059;28;20031;-68
2021/04/17 02:13:51;;;;;;;4.38;2.20;;;;;;;8.45;37.25;100295.78;4958705;28;20023;-69
2021/04/17 02:16:24;;;;;;;3.00;2.10;;;;;;;8.41;37.06;100309.09;4957447;28;20019;-69
2021/04/17 02:19:00;;;;;;;3.72;2.20;;;;;;;8.39;37.49;100302.28;4958743;28;20046;-68
2021/04/17 02:21:32;;;;;;;4.38;2.08;;;;;;;8.38;37.10;100301.50;4959669;28;20019;-68
2021/04/17 02:23:59;;;;;;;3.85;2.15;;;;;;;8.31;37.39;100303.59;4957699;28;20116;-68
2021/04/17 02:26:25;;;;;;;7.15;2.63;;;;;;;8.24;37.60;100293.00;4958230;29;20030;-68
2021/04/17 02:28:51;;;;;;;5.10;2.72;;;;;;;8.17;37.44;100292.44;4958650;28;20047;-68
2021/04/17 02:31:17;;;;;;;5.13;2.40;;;;;;;8.21;37.69;100300.88;4959201;28;20034;-69
2021/04/17 02:33:42;;;;;;;3.00;2.30;;;;;;;8.20;37.43;100297.31;4958894;28;20039;-69
2021/04/17 02:36:08;;;;;;;3.90;2.30;;;;;;;8.19;37.85;100309.25;4966831;28;20022;-68
2021/04/17 02:38:33;;;;;;;3.80;2.30;;;;;;;8.18;37.57;100305.75;4961590;28;20499;-69
2021/04/17 02:40:58;;;;;;;3.25;2.38;;;;;;;8.14;37.70;100301.91;4964634;28;20019;-68
2021/04/17 02:43:24;;;;;;;3.90;2.33;;;;;;;8.10;38.01;100302.72;4957079;28;20407;-68
2021/04/17 02:45:49;;;;;;;3.13;2.08;;;;;;;8.01;38.14;100303.22;4958873;28;20427;-68
2021/04/17 02:48:15;;;;;;;4.05;2.58;;;;;;;7.94;38.10;100301.81;4958292;28;20023;-69
2021/04/17 02:50:40;;;;;;;4.10;2.80;;;;;;;7.93;38.27;100301.00;4953873;28;20034;-68
2021/04/17 02:53:06;;;;;;;2.95;2.33;;;;;;;7.87;38.50;100302.88;4958535;28;20411;-69
2021/04/17 02:55:32;;;;;;;3.75;2.67;;;;;;;7.84;38.64;100305.31;4958192;28;20023;-70
2021/04/17 02:57:57;;;;;;;3.42;2.30;;;;;;;7.80;38.58;100301.47;4958011;28;20026;-70
2021/04/17 03:00:23;;;;;;;2.95;2.22;;;;;;;7.78;38.71;100307.16;4958540;28;20490;-68
2021/04/17 03:02:52;;;;;;;2.90;2.25;;;;;;;7.72;38.51;100300.88;4958177;28;20019;-69
2021/04/17 03:05:19;;;;;;;4.03;2.60;;;;;;;7.74;38.60;100305.22;4958722;28;20086;-69
2021/04/17 03:07:45;;;;;;;3.65;2.47;;;;;;;7.67;39.01;100314.44;4956663;28;20038;-68
2021/04/17 03:10:11;;;;;;;2.75;2.30;;;;;;;7.62;39.03;100305.44;4958862;28;20039;-68
2021/04/17 03:12:37;;;;;;;5.13;2.90;;;;;;;7.46;39.18;100280.91;4958289;28;20032;-68
2021/04/17 03:15:04;;;;;;;4.82;3.08;;;;;;;7.55;39.56;100305.66;4958274;28;20086;-69
2021/04/17 03:17:31;;;;;;;5.10;2.80;;;;;;;7.50;39.50;100300.19;4958167;28;20030;-68
2021/04/17 03:19:57;;;;;;;4.32;2.65;;;;;;;7.43;39.51;100297.69;4956433;28;20484;-68
2021/04/17 03:22:22;;;;;;;7.05;3.63;;;;;;;7.40;39.98;100295.47;4954304;28;20502;-68
2021/04/17 03:24:48;;;;;;;3.88;3.08;;;;;;;7.35;39.92;100290.03;4958160;28;20059;-70
2021/04/17 03:27:14;;;;;;;4.72;2.65;;;;;;;7.30;40.23;100295.44;4958183;29;20118;-68
2021/04/17 03:29:39;;;;;;;3.88;2.55;;;;;;;7.32;40.26;100295.97;4957666;28;20047;-68
2021/04/17 03:32:05;;;;;;;4.43;2.70;;;;;;;7.29;40.14;100297.31;4958411;28;20034;-69
2021/04/17 03:34:31;;;;;;;6.18;2.80;;;;;;;7.26;40.46;100303.28;4958020;28;20098;-69
2021/04/17 03:36:56;;;;;;;3.58;2.75;;;;;;;7.23;40.30;100303.78;4970699;28;20510;-68
2021/04/17 03:39:22;;;;;;;3.95;2.92;;;;;;;7.21;40.51;100303.19;4958063;28;20661;-68
2021/04/17 03:41:48;;;;;;;4.07;2.83;;;;;;;7.12;40.72;100292.03;4958001;28;20074;-69
2021/04/17 03:44:13;;;;;;;4.05;2.80;;;;;;;7.15;40.55;100306.97;4957771;28;20027;-68
2021/04/17 03:46:39;;;;;;;4.53;2.63;;;;;;;7.09;40.79;100312.34;4962185;28;20067;-68
2021/04/17 03:49:04;;;;;;;5.13;3.30;;;;;;;7.07;40.92;100306.34;4957973;29;20051;-69
2021/04/17 03:51:30;;;;;;;4.95;3.15;;;;;;;7.04;40.98;100306.06;4958072;28;20027;-68
2021/04/17 03:53:56;;;;;;;3.78;2.80;;;;;;;7.01;40.69;100310.09;4957622;28;20027;-68
2021/04/17 03:56:22;;;;;;;3.90;2.97;;;;;;;6.85;40.80;100292.06;4957999;28;20035;-68
2021/04/17 03:58:47;;;;;;;5.95;3.50;;;;;;;6.87;41.19;100306.16;4957362;28;20087;-70
2021/04/17 04:01:13;;;;;;;3.90;2.92;;;;;;;6.93;40.78;100324.13;4957963;29;20047;-68
2021/04/17 04:03:39;;;;;;;4.20;3.45;;;;;;;6.89;41.19;100312.13;4957774;28;20023;-68
2021/04/17 04:06:04;;;;;;;4.15;2.95;;;;;;;6.84;41.37;100314.81;4957585;28;20098;-69
2021/04/17 04:08:30;;;;;;;6.15;3.17;;;;;;;6.83;41.42;100313.16;4957519;28;20023;-68
2021/04/17 04:10:55;;;;;;;4.13;3.15;;;;;;;6.81;41.34;100320.72;4964091;28;20106;-68
2021/04/17 04:13:21;;;;;;;6.03;3.08;;;;;;;6.78;41.28;100320.16;4957100;28;20037;-69
2021/04/17 04:15:46;;;;;;;4.13;3.20;;;;;;;6.74;41.79;100320.91;4957259;29;20035;-69
2021/04/17 04:18:12;;;;;;;5.00;3.55;;;;;;;6.71;42.04;100311.41;4956997;28;20024;-69
2021/04/17 04:20:37;;;;;;;4.13;3.00;;;;;;;6.65;42.17;100319.75;4956706;28;20076;-68
2021/04/17 04:23:04;;;;;;;5.18;3.00;;;;;;;6.56;42.25;100322.09;4957879;28;20381;-70
2021/04/17 04:25:30;;;;;;;5.70;3.17;;;;;;;6.49;42.66;100316.03;4961242;28;20026;-68
2021/04/17 04:27:56;;;;;;;6.75;3.50;;;;;;;6.44;42.43;100323.06;4956599;28;20027;-68
2021/04/17 04:30:22;;;;;;;6.32;3.63;;;;;;;6.45;42.60;100321.97;4956962;28;20050;-68
2021/04/17 04:32:48;;;;;;;4.78;3.13;;;;;;;6.42;42.65;100325.19;4957231;28;20054;-69
2021/04/17 04:35:14;;;;;;;4.93;3.78;;;;;;;6.37;42.76;100324.31;4958513;28;20023;-69
2021/04/17 04:37:41;;;;;;;5.90;3.58;;;;;;;6.38;42.96;100328.66;4957337;28;20082;-68
2021/04/17 04:40:08;;;;;;;4.28;3.70;;;;;;;6.37;43.09;100322.41;4964019;28;20107;-68
2021/04/17 04:42:35;;;;;;;5.97;3.70;;;;;;;6.39;43.12;100331.09;4957328;28;20051;-69
2021/04/17 04:45:02;;;;;;;5.60;3.80;;;;;;;6.40;42.96;100330.03;4957275;28;20066;-69
2021/04/17 04:47:28;;;;;;;5.97;4.00;;;;;;;6.39;43.00;100328.41;4961788;28;20037;-68
2021/04/17 04:49:53;;;;;;;6.82;3.90;;;;;;;6.39;43.37;100330.28;4960912;28;20039;-68
2021/04/17 04:52:19;;;;;;;5.55;3.65;;;;;;;6.35;43.45;100323.72;4960989;28;20039;-69
2021/04/17 04:54:44;;;;;;;5.47;3.70;;;;;;;6.32;43.67;100333.19;4961128;29;20078;-68
2021/04/17 04:57:10;;;;;;;5.88;4.15;;;;;;;6.28;43.51;100332.06;4960359;28;20086;-68
2021/04/17 04:59:35;;;;;;;5.35;3.83;;;;;;;6.24;43.92;100330.91;4961118;28;20038;-69
2021/04/17 05:02:02;;;;;;;4.90;3.90;;;;;;;6.20;43.84;100327.88;4960615;28;20023;-69
2021/04/17 05:04:28;;;;;;;8.15;3.53;;;;;;;6.09;44.17;100321.53;4960900;28;20031;-68
2021/04/17 05:06:53;;;;;;;5.22;3.45;;;;;;;6.13;44.19;100335.38;4960604;28;20043;-68
2021/04/17 05:09:19;;;;;;;5.70;3.83;;;;;;;6.09;44.28;100329.66;4960972;28;20031;-69
2021/04/17 05:11:45;;;;;;;6.78;3.60;;;;;;;5.99;44.55;100318.69;4960877;28;20514;-68
2021/04/17 05:14:11;;;;;;;7.93;3.65;;;;;;;6.00;44.86;100328.44;4957975;28;20031;-69
2021/04/17 05:16:36;;;;;;;4.93;3.70;;;;;;;5.75;44.74;100291.81;4959657;29;20035;-68
2021/04/17 05:19:02;;;;;;;5.55;3.50;;;;;;;5.97;44.79;100326.19;4958150;28;20031;-70
2021/04/17 05:21:28;;;;;;;6.05;3.80;;;;;;;5.92;44.87;100332.34;4958914;28;20027;-68
2021/04/17 05:23:53;;;;;;;5.00;3.80;;;;;;;5.94;44.99;100334.81;4960693;28;20031;-68
2021/04/17 05:26:19;;;;;;;6.00;4.20;;;;;;;5.86;44.94;100330.66;4960870;29;20034;-68
2021/04/17 05:28:44;;;;;;;5.95;4.00;;;;;;;5.90;45.10;100341.78;4959933;28;20047;-68
2021/04/17 05:31:10;;;;;;;6.25;4.00;;;;;;;5.90;45.21;100342.63;4960702;28;20035;-68
2021/04/17 05:33:35;;;;;;;8.77;3.97;;;;;;;5.91;45.15;100346.13;4959851;28;20027;-68
2021/04/17 05:36:00;;;;;;;8.63;3.97;;;;;;;5.86;45.16;100344.16;4965111;28;20088;-69
2021/04/17 05:38:26;;;;;;;5.15;4.32;;;;;;;5.87;45.66;100350.41;4962090;28;20035;-68
2021/04/17 05:40:51;;;;;;;5.43;4.15;;;;;;;5.79;45.57;100341.63;4963656;28;20039;-69
2021/04/17 05:43:17;;;;;;;7.60;4.70;;;;;;;5.77;45.78;100351.91;4960030;28;20027;-69
2021/04/17 05:45:42;;;;;;;6.65;4.60;;;;;;;5.77;45.87;100345.66;4962238;28;20065;-68
2021/04/17 05:48:08;;;;;;;7.25;4.10;;;;;;;5.74;46.14;100349.69;4959923;28;20019;-68
2021/04/17 05:50:33;;;;;;;6.18;4.10;;;;;;;5.76;45.89;100349.44;4959762;28;20023;-68
2021/04/17 05:52:59;;;;;;;5.93;4.20;;;;;;;5.75;45.82;100358.59;4959636;28;20034;-68
2021/04/17 05:55:24;;;;;;;6.50;4.28;;;;;;;5.71;46.20;100355.56;4959269;28;20036;-68
2021/04/17 05:57:49;;;;;;;6.13;4.32;;;;;;;5.73;46.06;100356.16;4959454;28;20676;-68
2021/04/17 06:00:15;;;;;;;8.52;4.40;;;;;;;5.66;46.38;100339.28;4957842;28;20053;-68
2021/04/17 06:02:41;;;;;;;5.10;4.32;;;;;;;5.72;46.35;100362.63;4959805;28;20504;-68
2021/04/17 06:05:07;;;;;;;7.00;4.70;;;;;;;5.51;46.50;100327.16;4959276;28;20118;-68
2021/04/17 06:07:32;;;;;;;5.85;4.45;;;;;;;5.72;46.40;100356.41;4954589;28;20028;-70
2021/04/17 06:09:58;;;;;;;6.13;4.45;;;;;;;5.73;46.36;100349.94;4956531;28;20031;-68
2021/04/17 06:12:23;;;;;;;8.07;4.68;;;;;;;5.75;46.40;100359.44;4958808;28;20488;-68
2021/04/17 06:14:48;;;;;;;8.93;4.40;;;;;;;5.75;46.80;100364.84;4958124;28;20027;-68
2021/04/17 06:17:14;;;;;;;6.85;4.57;;;;;;;5.76;46.62;100371.06;4957089;29;20027;-68
2021/04/17 06:19:39;;;;;;;7.25;5.53;;;;;;;5.73;46.74;100361.56;4955845;28;20058;-68
2021/04/17 06:22:04;;;;;;;9.05;5.07;;;;;;;5.76;46.49;100357.53;4956973;28;20019;-68
2021/04/17 06:24:30;;;;;;;9.20;5.15;;;;;;;5.77;46.64;100365.44;4957788;28;20050;-68
2021/04/17 06:26:56;;;;;;;6.43;5.20;;;;;;;5.83;46.69;100364.44;4958622;28;20086;-67
2021/04/17 06:29:21;;;;;;;7.78;4.95;;;;;;;5.85;46.61;100374.19;4958840;28;20058;-68
2021/04/17 06:31:46;;;;;;;6.60;5.07;;;;;;;5.85;46.46;100372.28;4959043;28;20455;-69
2021/04/17 06:34:12;;;;;;;7.80;5.63;;;;;;;5.85;46.58;100369.59;4959077;28;20034;-68
2021/04/17 06:36:38;;;;;;;8.82;5.38;;;;;;;5.85;46.85;100379.59;4960198;28;20034;-67
2021/04/17 06:39:08;;;;;;;6.93;5.38;;;;;;;5.89;46.59;100376.16;4958370;28;20139;-68
2021/04/17 06:41:34;;;;;;;10.20;5.43;;;;;;;5.99;46.45;100378.22;4958950;28;20023;-68
2021/04/17 06:44:07;;;;;;;8.15;6.07;;;;;;;5.96;46.28;100368.69;4958355;28;20027;-67
2021/04/17 06:46:34;;;;;;;7.25;5.68;;;;;;;6.01;46.55;100381.50;4970836;28;20030;-69
2021/04/17 06:49:01;;;;;;;6.38;5.40;;;;;;;6.06;46.31;100394.31;4958662;28;20038;-68
2021/04/17 06:51:27;;;;;;;8.20;5.70;;;;;;;6.04;46.31;100391.00;4959122;28;20046;-68
2021/04/17 06:53:53;;;;;;;6.22;5.35;;;;;;;6.06;46.46;100388.88;4958718;28;20027;-68
2021/04/17 06:56:22;;;;;;;7.78;5.40;;;;;;;6.09;46.30;100396.50;4958707;28;20603;-68
2021/04/17 06:58:48;;;;;;;6.75;5.53;;;;;;;6.07;46.43;100396.75;4958264;28;20440;-69
2021/04/17 07:01:13;;;;;;;7.68;5.72;;;;;;;6.02;46.72;100402.09;4958638;28;20373;-67
2021/04/17 07:03:39;;;;;;;7.60;5.88;;;;;;;6.06;46.58;100389.69;4958667;28;20023;-68
2021/04/17 07:06:04;;;;;;;8.45;5.60;;;;;;;6.03;46.82;100386.66;4958562;28;20035;-68
2021/04/17 07:08:30;;;;;;;8.40;5.82;;;;;;;6.10;46.59;100381.88;4958441;28;20078;-68
2021/04/17 07:10:55;;;;;;;7.93;6.00;;;;;;;6.16;46.73;100388.22;4959933;28;20023;-68
2021/04/17 07:13:21;;;;;;;9.25;6.00;;;;;;;6.25;46.44;100382.09;4958337;28;20400;-69
2021/04/17 07:15:47;;;;;;;7.40;5.65;;;;;;;6.29;46.71;100390.53;4958398;29;20027;-69
2021/04/17 07:18:25;;;;;;;6.93;5.53;;;;;;;6.32;46.87;100390.06;4958249;28;20027;-67
2021/04/17 07:20:51;;;;;;;8.32;6.72;;;;;;;6.26;46.90;100383.75;4951819;28;20095;-68
2021/04/17 07:23:32;;;;;;;8.50;6.45;;;;;;;6.35;46.60;100391.44;4960375;28;20027;-69
2021/04/17 07:26:27;;;;;;;7.63;5.97;;;;;;;6.40;46.67;100400.47;4958291;28;20031;-67
2021/04/17 07:29:02;;;;;;;7.57;6.50;;;;;;;6.46;46.16;100390.50;4957558;28;20488;-67
2021/04/17 07:31:30;;;;;;;10.45;6.80;;;;;;;6.49;46.03;100397.31;4958295;28;20035;-68
2021/04/17 07:33:57;;;;;;;8.35;6.68;;;;;;;6.56;46.32;100397.94;4957650;28;20105;-67
2021/04/17 07:36:43;;;;;;;9.13;6.00;;;;;;;6.60;46.06;100394.47;4959346;28;20575;-68
2021/04/17 07:39:29;;;;;;;7.65;6.28;;;;;;;6.75;46.01;100388.44;4959082;28;20079;-68
2021/04/17 07:42:10;;;;;;;8.45;6.45;;;;;;;6.82;45.79;100390.13;4957897;28;20611;-68
2021/04/17 07:44:44;;;;;;;10.65;7.30;;;;;;;6.76;45.67;100387.38;4957946;28;20035;-68
2021/04/17 07:47:10;;;;;;;7.03;6.15;;;;;;;6.76;45.58;100389.25;4960545;28;20240;-68
2021/04/17 07:49:37;;;;;;;9.32;6.22;;;;;;;6.85;45.66;100389.63;4956386;28;20352;-64
2021/04/17 07:52:12;;;;;;;7.28;6.30;;;;;;;6.92;45.69;100390.25;4957745;28;20492;-70
2021/04/17 07:55:00;;;;;;;7.68;5.97;;;;;;;6.99;45.42;100387.31;4957664;28;20026;-68
2021/04/17 07:57:41;;;;;;;11.25;6.03;;;;;;;7.01;45.68;100387.88;4948140;28;20472;-68
2021/04/17 08:00:09;;;;;;;8.50;6.50;;;;;;;7.02;45.66;100392.25;4957479;28;20098;-67
2021/04/17 08:02:36;;;;;;;7.10;5.75;;;;;;;7.00;45.70;100387.09;4957580;28;20568;-67
2021/04/17 08:05:03;;;;;;;8.25;5.95;;;;;;;7.06;45.63;100390.66;4957045;28;20480;-68
2021/04/17 08:07:30;;;;;;;7.32;5.88;;;;;;;7.16;45.48;100406.22;4957333;28;20027;-68
2021/04/17 08:09:59;;;;;;;7.93;6.20;;;;;;;7.13;45.09;100399.41;4957965;28;20031;-67
2021/04/17 08:12:25;;;;;;;7.95;5.93;;;;;;;7.03;45.49;100397.41;4957660;28;20196;-68
2021/04/17 08:14:50;;;;;;;7.97;6.32;;;;;;;7.17;45.34;100408.66;4972030;28;20035;-68
2021/04/17 08:17:17;;;;;;;9.52;6.80;;;;;;;7.31;45.40;100408.28;4956522;28;20027;-69
2021/04/17 08:19:42;;;;;;;7.50;5.90;;;;;;;7.30;45.15;100393.06;4957335;28;20087;-67
2021/04/17 08:22:08;;;;;;;8.40;6.47;;;;;;;7.44;45.19;100418.69;4952510;28;20027;-67
2021/04/17 08:24:34;;;;;;;7.10;5.90;;;;;;;7.45;44.82;100403.22;4960746;28;20062;-67
2021/04/17 08:27:01;;;;;;;7.47;6.20;;;;;;;7.61;44.68;100421.28;4961136;28;20087;-68
2021/04/17 08:29:46;;;;;;;10.07;6.38;;;;;;;7.67;44.37;100416.72;4960839;28;20047;-68
2021/04/17 08:32:28;;;;;;;6.97;5.75;;;;;;;7.78;44.62;100417.63;4960870;28;20059;-68
2021/04/17 08:35:10;;;;;;;8.48;6.75;;;;;;;7.84;44.54;100427.47;4961404;28;20031;-67
2021/04/17 08:37:55;;;;;;;8.60;5.72;;;;;;;7.90;44.65;100431.00;4949239;28;20038;-68
2021/04/17 08:40:36;;;;;;;8.00;6.20;;;;;;;7.90;44.15;100431.84;4961442;28;20042;-65
2021/04/17 08:43:07;;;;;;;7.78;5.78;;;;;;;7.88;44.30;100426.69;4961321;28;20038;-68
2021/04/17 08:45:33;;;;;;;7.97;6.22;;;;;;;7.91;43.94;100419.91;4962792;28;20033;-68
2021/04/17 08:48:00;;;;;;;7.65;5.90;;;;;;;7.96;43.97;100427.28;4967543;28;20064;-68
2021/04/17 08:50:31;;;;;;;7.45;6.10;;;;;;;8.03;43.73;100425.97;4961049;28;20118;-68
2021/04/17 08:53:03;;;;;;;7.50;6.15;;;;;;;8.07;43.61;100428.16;4961083;28;20093;-68
2021/04/17 08:55:37;;;;;;;9.85;6.32;;;;;;;8.14;43.94;100428.75;4960712;28;20376;-68
2021/04/17 08:58:22;;;;;;;10.07;6.00;;;;;;;8.22;43.65;100422.03;4960803;28;20038;-69
2021/04/17 09:00:53;;;;;;;8.20;6.30;;;;;;;8.27;43.63;100424.75;4960129;28;20385;-69
2021/04/17 09:03:39;;;;;;;7.70;6.32;;;;;;;8.40;43.34;100415.34;4960719;28;20122;-68
2021/04/17 09:06:07;;;;;;;6.85;6.15;;;;;;;8.35;43.00;100413.41;4960308;28;20106;-68
2021/04/17 09:08:32;;;;;;;7.40;5.90;;;;;;;8.39;43.27;100417.22;4960037;28;20043;-69
2021/04/17 09:10:58;;;;;;;8.52;6.05;;;;;;;8.24;42.81;100390.78;4962454;28;20098;-68
2021/04/17 09:13:27;;;;;;;6.85;5.75;;;;;;;8.56;42.78;100425.22;4959362;28;20047;-68
2021/04/17 09:15:53;;;;;;;9.57;6.10;;;;;;;8.64;42.91;100430.16;4958721;28;20059;-67
2021/04/17 09:18:37;;;;;;;6.75;6.03;;;;;;;8.75;42.51;100420.16;4958141;28;20027;-67
2021/04/17 09:21:08;;;;;;;9.20;6.15;;;;;;;8.86;42.77;100415.56;4959785;28;20515;-69
2021/04/17 09:23:37;;;;;;;6.55;5.78;;;;;;;8.93;42.40;100418.84;4960518;28;20431;-69
2021/04/17 09:26:03;;;;;;;5.80;5.20;;;;;;;8.91;41.92;100406.59;4960313;28;20035;-70
2021/04/17 09:28:39;;;;;;;7.95;5.63;;;;;;;8.93;41.80;100418.84;4959773;28;20126;-69
2021/04/17 09:31:06;;;;;;;8.27;5.95;;;;;;;8.86;41.31;100407.41;4959764;28;20408;-69
2021/04/17 09:33:32;;;;;;;11.32;6.10;;;;;;;8.76;41.69;100405.47;4953800;28;20445;-69
2021/04/17 09:35:57;;;;;;;8.50;5.50;;;;;;;8.87;41.11;100421.84;4960045;28;20480;-69
2021/04/17 09:38:30;;;;;;;7.22;5.43;;;;;;;8.82;41.45;100406.31;4961281;28;20082;-69
2021/04/17 09:40:56;;;;;;;7.07;5.63;;;;;;;8.90;41.93;100413.94;4960295;28;20023;-69
2021/04/17 09:43:33;;;;;;;6.40;5.32;;;;;;;8.90;40.88;100411.25;4960178;28;20027;-70
2021/04/17 09:46:14;;;;;;;6.20;5.50;;;;;;;8.97;41.18;100417.25;4967128;28;20042;-69
2021/04/17 09:48:41;;;;;;;7.22;5.60;;;;;;;9.01;40.81;100405.84;4961190;28;20154;-69
2021/04/17 09:51:26;;;;;;;11.10;5.65;;;;;;;9.03;40.77;100401.75;4960045;28;20082;-69
2021/04/17 09:53:53;;;;;;;11.05;5.75;;;;;;;9.04;41.19;100402.56;4952984;28;20031;-69
2021/04/17 09:56:27;;;;;;;6.50;4.95;;;;;;;9.19;40.30;100396.34;4959521;28;20035;-69
2021/04/17 09:58:53;;;;;;;7.43;4.90;;;;;;;9.24;40.26;100393.63;4954653;28;20051;-69
2021/04/17 10:01:19;;;;;;;8.45;5.60;;;;;;;9.34;40.33;100387.41;4959072;28;20819;-69
2021/04/17 10:03:51;;;;;;;7.93;5.57;;;;;;;9.45;40.35;100383.59;4959904;28;20035;-69
2021/04/17 10:06:31;;;;;;;7.85;5.50;;;;;;;9.39;39.79;100379.22;4960082;28;20023;-70
2021/04/17 10:09:15;;;;;;;6.75;4.60;;;;;;;9.43;39.40;100385.75;4958863;28;20412;-69
2021/04/17 10:11:43;;;;;;;6.38;5.32;;;;;;;9.41;39.27;100383.31;4960291;28;20477;-69
2021/04/17 10:14:10;;;;;;;8.45;4.82;;;;;;;9.54;39.38;100381.97;4958987;28;20500;-67
2021/04/17 10:16:40;;;;;;;9.52;5.55;;;;;;;9.50;38.41;100380.88;4959920;28;20027;-69
2021/04/17 10:19:12;;;;;;;5.93;5.32;;;;;;;9.51;38.78;100378.97;4958862;28;20059;-68
2021/04/17 10:21:38;;;;;;;6.90;4.90;;;;;;;9.55;38.57;100372.72;4952369;28;20087;-69
2021/04/17 10:24:23;;;;;;;7.32;4.95;;;;;;;9.68;38.40;100368.63;4957572;28;20058;-70
2021/04/17 10:26:52;;;;;;;10.02;5.20;;;;;;;9.72;38.52;100366.97;4959621;28;20487;-68
2021/04/17 10:29:18;;;;;;;4.90;4.05;;;;;;;9.83;38.05;100356.06;4956814;28;20047;-70
2021/04/17 10:31:44;;;;;;;5.78;5.03;;;;;;;9.95;37.62;100359.34;4959717;28;20035;-69
2021/04/17 10:34:10;;;;;;;6.00;4.25;;;;;;;10.05;37.27;100372.91;4958927;28;20015;-69
2021/04/17 10:36:35;;;;;;;4.47;3.70;;;;;;;10.10;37.18;100369.38;4959287;28;20027;-70
2021/04/17 10:39:08;;;;;;;6.70;4.22;;;;;;;10.19;36.05;100364.19;4960043;28;20031;-70
2021/04/17 10:41:35;;;;;;;5.40;4.07;;;;;;;10.26;36.51;100356.53;4952686;28;20067;-69
2021/04/17 10:44:11;;;;;;;5.50;4.28;;;;;;;10.42;36.03;100351.06;4957860;28;20034;-70
2021/04/17 10:46:45;;;;;;;5.25;4.30;;;;;;;10.57;36.12;100364.63;4962665;28;20035;-70
2021/04/17 10:49:25;;;;;;;5.93;4.18;;;;;;;10.58;35.35;100335.47;4958201;28;20085;-70
2021/04/17 10:51:50;;;;;;;5.65;4.32;;;;;;;10.67;35.44;100352.84;4958747;28;20031;-69
2021/04/17 10:54:16;;;;;;;6.55;4.85;;;;;;;10.63;35.46;100346.31;4958788;28;20097;-70
2021/04/17 10:56:55;;;;;;;7.60;4.55;;;;;;;10.71;35.45;100326.66;4959238;28;20039;-69
2021/04/17 10:59:21;;;;;;;6.35;4.95;;;;;;;10.76;36.03;100334.00;4957850;28;20058;-69
2021/04/17 11:01:46;;;;;;;4.35;3.95;;;;;;;10.60;35.31;100336.81;4958441;28;20069;-71
2021/04/17 11:04:11;;;;;;;5.30;4.57;;;;;;;10.56;34.98;100330.25;4958655;28;20034;-69
2021/04/17 11:06:39;;;;;;;5.82;4.30;;;;;;;10.57;34.65;100331.91;4958781;28;20031;-70
2021/04/17 11:09:10;;;;;;;6.47;4.85;;;;;;;10.66;35.20;100313.06;4958950;28;20071;-70
2021/04/17 11:11:37;;;;;;;5.82;4.32;;;;;;;10.86;34.93;100315.66;4958971;28;20037;-70
2021/04/17 11:14:05;;;;;;;5.15;4.18;;;;;;;11.03;34.75;100306.28;4957675;28;20055;-71
2021/04/17 11:16:50;;;;;;;5.55;4.18;;;;;;;11.05;33.53;100305.97;4958848;28;20035;-70
2021/04/17 11:19:33;;;;;;;6.85;4.63;;;;;;;11.12;33.83;100304.56;4957053;28;20015;-70
2021/04/17 11:22:10;;;;;;;7.07;4.00;;;;;;;11.15;33.42;100314.94;4956676;28;20023;-69
2021/04/17 11:24:38;;;;;;;5.50;3.60;;;;;;;11.20;33.50;100305.06;4957846;28;20037;-69
2021/04/17 11:27:04;;;;;;;5.65;3.97;;;;;;;11.01;32.87;100306.56;4957693;28;20492;-70
2021/04/17 11:29:29;;;;;;;4.43;3.97;;;;;;;11.00;33.05;100295.91;4957911;28;20499;-68
2021/04/17 11:31:55;;;;;;;6.57;4.10;;;;;;;10.98;33.52;100298.94;4958554;28;20027;-71
2021/04/17 11:34:20;;;;;;;8.95;4.00;;;;;;;11.08;33.87;100298.03;4957747;28;20027;-70
2021/04/17 11:36:46;;;;;;;7.10;4.32;;;;;;;11.15;33.65;100297.72;4967120;28;20491;-70